• Join FlightAware (Why Join?)
  • Login
  • US Flag 
06:37PM EDT


 

Airport Tracker/Info


-or-


 

Live Flight TrackerFlight Track Log ✈ BOE2 ✈ 07-Jun-2013 ✈ KBFI - KMWH

Flight Track Log - Related Links

Times and Time Zones

All times are in EDT time to prevent confusion due to time zone crossing. See the BOE2 flight status page for this flight to view local times or setup timezone preferences in your user account.

Time Position Orientation Groundspeed Altitude Reporting Facility
EDT Latitude Longitude Course Direction KTS MPH feet Rate Location/Type
12:58PM 47.5144 -122.2897 142° Southeast 150 173 1,500  Level Seattle Center
12:58PM 47.4989 -122.2719 142° Southeast 165 190 2,300 2,280 Climbing Seattle Center
12:59PM 47.4339 -122.1997 143° Southeast 293 337 5,200 2,280 Climbing Seattle Center
01:00PM 47.4003 -122.1864 165° South 278 320 6,000 1,380 Climbing Seattle Center
01:01PM 47.3747 -122.2717 246° West 248 285 7,400 2,880 Climbing Seattle Center
01:02PM 47.4097 -122.3625 300° West 266 306 11,900 4,080 Climbing Seattle Center
01:03PM 47.4600 -122.4464 312° West 269 310 15,800 3,720 Climbing Seattle Center
01:04PM 47.5136 -122.5369 311° West 274 315 19,600 3,240 Climbing Seattle Center
01:05PM 47.5581 -122.6275 306° West 272 313 22,500 2,700 Climbing Seattle Center
01:06PM 47.5953 -122.7297 298° West 280 322 25,200 2,460 Climbing Seattle Center
01:07PM 47.6336 -122.8344 299° West 287 330 27,600 2,220 Climbing Seattle Center
01:08PM 47.6736 -122.9386 300° West 292 336 29,800 1,860 Climbing Seattle Center
01:09PM 47.7186 -123.0433 303° West 299 344 31,500 1,560 Climbing Seattle Center
01:10PM 47.7603 -123.1589 298° West 313 360 33,000 1,440 Climbing Seattle Center
01:11PM 47.8033 -123.2708 300° West 318 366 34,500 1,380 Climbing Seattle Center
01:12PM 47.8558 -123.4117 299° West 325 374 35,900 1,260 Climbing Seattle Center
01:13PM 47.9008 -123.5336 299° West 338 389 37,100 1,260 Climbing Seattle Center
01:14PM 47.9481 -123.6606 299° West 342 394 38,600 1,080 Climbing Seattle Center
01:15PM 47.9947 -123.7867 299° West 347 399 39,300 540 Climbing Seattle Center
01:16PM 48.0436 -123.9192 299° West 362 417 39,800 720 Climbing Seattle Center
01:17PM 48.0936 -124.0564 299° West 374 430 40,800 540 Climbing Seattle Center
01:18PM 48.1428 -124.1919 299° West 373 429 41,000 60 Climbing Seattle Center
01:19PM 48.1922 -124.3267 299° West 371 427 41,000  Level Seattle Center
01:20PM 48.2350 -124.4664 295° West 369 425 41,000  Level Seattle Center
01:21PM 48.2353 -124.6186 270° West 374 430 41,000  Level Seattle Center
01:22PM 48.1314 -124.6883 204° Southwest 443 510 41,000  Level Seattle Center
01:23PM 48.0050 -124.6736 176° South 488 562 41,000  Level Seattle Center
01:24PM 47.9394 -124.4828 117° Southeast 538 619 41,000  Level Seattle Center
01:25PM 47.8889 -124.2314 107° East 535 616 41,000  Level Seattle Center
01:26PM 47.8461 -124.0206 107° East 536 617 41,000  Level Seattle Center
01:27PM 47.8036 -123.8119 107° East 533 613 41,000  Level Seattle Center
01:28PM 47.7569 -123.5967 108° East 532 612 41,000  Level Seattle Center
01:29PM 47.7131 -123.3900 107° East 532 612 41,000  Level Seattle Center
01:30PM 47.6725 -123.1819 106° East 532 612 41,000  Level Seattle Center
01:31PM 47.6269 -122.9819 109° East 522 601 41,000  Level Seattle Center
01:32PM 47.5789 -122.7850 110° East 519 597 41,000  Level Seattle Center
01:33PM 47.5283 -122.5361 107° East 540 621 41,000  Level Seattle Center
01:34PM 47.4800 -122.3264 109° East 556 640 41,000  Level Seattle Center
01:35PM 47.4364 -122.1247 108° East 536 617 41,000  Level Seattle Center
01:37PM 47.3906 -121.9267 109° East 520 598 41,000  Level Seattle Center
01:38PM 47.3461 -121.7278 108° East 520 598 41,000  Level Seattle Center
01:39PM 47.2911 -121.4883 109° East 519 597 41,000  Level Seattle Center
01:40PM 47.2447 -121.2936 109° East 514 592 41,000  Level Seattle Center
01:41PM 47.1992 -121.1014 109° East 506 582 41,000  Level Seattle Center
01:42PM 47.1542 -120.9114 109° East 500 575 41,000  Level Seattle Center
01:43PM 47.1092 -120.7269 110° East 503 579 41,000  Level Seattle Center
01:44PM 47.0625 -120.5325 109° East 505 581 41,000  Level Seattle Center
01:45PM 47.0153 -120.3378 110° East 506 582 41,000 -420 Level Seattle Center
01:46PM 46.9675 -120.1461 110° East 505 581 40,200 -2,220 Descending Seattle Center
01:47PM 46.9072 -119.9106 110° East 510 587 36,600 -2,580 Descending Seattle Center
01:48PM 46.8031 -119.7978 143° Southeast 471 542 35,000 -1,680 Descending Seattle Center
01:49PM 46.6964 -119.7111 151° Southeast 442 509 33,200 -2,100 Descending Seattle Center
01:50PM 46.5931 -119.6272 151° Southeast 430 495 30,700 -3,000 Descending Seattle Center
01:51PM 46.4931 -119.5522 153° Southeast 411 473 27,200 -3,540 Descending Seattle Center
01:52PM 46.3836 -119.4683 152° Southeast 432 497 23,600 -3,000 Descending Seattle Center
01:53PM 46.2750 -119.3814 151° Southeast 446 513 21,200 -2,760 Descending Seattle Center
01:54PM 46.1697 -119.3019 152° Southeast 435 501 18,100 -2,580 Descending Seattle Center
01:55PM 46.0644 -119.2164 151° Southeast 429 494 16,000 -1,440 Descending Seattle Center
01:56PM 45.9719 -119.1461 152° Southeast 375 432 15,200 -480 Descending Seattle Center
01:57PM 45.8892 -119.0800 151° Southeast 343 395 15,100 -60 Descending Seattle Center
01:58PM 45.7900 -118.9953 149° Southeast 345 397 15,100  Level Seattle Center
01:59PM 45.7672 -118.8594 103° East 354 407 15,100  Level Seattle Center
02:00PM 45.8169 -118.7433 58° Northeast 355 409 15,100  Level Seattle Center
02:01PM 45.8781 -118.6408 49° Northeast 340 391 15,100  Level Seattle Center
02:02PM 45.9383 -118.5381 50° Northeast 338 389 15,100 -60 Level Seattle Center
02:03PM 46.0017 -118.4356 48° Northeast 343 395 15,000 -120 Descending Seattle Center
02:04PM 46.0653 -118.3361 47° Northeast 339 390 14,900  Descending Seattle Center
02:05PM 46.1519 -118.2986 17° North 324 373 15,000  Climbing Seattle Center
02:06PM 46.2092 -118.3456 330° Northwest 239 275 15,000  Level Seattle Center
02:07PM 46.2603 -118.3967 325° Northwest 190 219 15,000  Level Seattle Center
02:08PM 46.2983 -118.4297 329° Northwest 162 186 15,000  Level Seattle Center
02:09PM 46.3331 -118.4606 328° Northwest 149 171 15,000  Level Seattle Center
02:10PM 46.3633 -118.4872 329° Northwest 129 148 15,000  Level Seattle Center
02:11PM 46.4028 -118.5236 328° Northwest 174 200 15,000  Level Seattle Center
02:12PM 46.4481 -118.5697 325° Northwest 209 241 15,000  Level Seattle Center
02:13PM 46.5114 -118.6311 326° Northwest 242 278 15,000  Level Seattle Center
02:14PM 46.5611 -118.6825 325° Northwest 221 254 15,000  Level Seattle Center
02:15PM 46.6106 -118.7308 326° Northwest 215 247 15,000  Level Seattle Center
02:16PM 46.6531 -118.7706 327° Northwest 181 208 15,000  Level Seattle Center
02:17PM 46.6892 -118.7989 332° Northwest 132 152 15,000 -240 Level Seattle Center
02:18PM 46.7197 -118.8244 330° Northwest 147 169 14,600  Descending Seattle Center
02:19PM 46.7508 -118.8728 313° West 164 189 15,000 180 Climbing Seattle Center
02:20PM 46.7792 -118.9106 318° Northwest 135 155 15,000  Level Seattle Center
02:21PM 46.8139 -118.9583 317° Northwest 178 205 15,000 -120 Level Seattle Center
02:22PM 46.8439 -119.0067 312° West 157 181 14,800  Descending Seattle Center
02:23PM 46.8872 -119.0597 320° Northwest 207 238 15,000 -240 Climbing Seattle Center
02:24PM 46.9381 -119.1061 328° Northwest 215 247 14,400 -660 Descending Seattle Center
02:25PM 46.9806 -119.1464 327° Northwest 164 189 13,700 -1,440 Descending Seattle Center
02:27PM 46.9975 -119.1906 299° West 156 180 11,500 -1,920 Descending Seattle Center
02:28PM 46.9772 -119.2486 243° Southwest 161 185 9,800 -1,500 Descending Seattle Center
02:29PM 46.9525 -119.3206 243° Southwest 188 216 8,500 -1,320 Descending Seattle Center